sensor_id;sensor_type;location;lat;lon;timestamp;P1;durP1;ratioP1;P2;durP2;ratioP2
5912;SDS011;2982;42.684;23.356;2023-12-20T00:00:17;111.10;;;51.93;;
5912;SDS011;2982;42.684;23.356;2023-12-20T00:02:42;112.57;;;50.63;;
5912;SDS011;2982;42.684;23.356;2023-12-20T00:05:07;111.30;;;50.13;;
5912;SDS011;2982;42.684;23.356;2023-12-20T00:07:33;104.80;;;48.97;;
5912;SDS011;2982;42.684;23.356;2023-12-20T00:09:58;93.27;;;47.63;;
5912;SDS011;2982;42.684;23.356;2023-12-20T00:12:23;95.43;;;46.40;;
5912;SDS011;2982;42.684;23.356;2023-12-20T00:14:48;90.70;;;44.57;;
5912;SDS011;2982;42.684;23.356;2023-12-20T00:17:13;92.83;;;44.63;;
5912;SDS011;2982;42.684;23.356;2023-12-20T00:19:40;93.20;;;44.73;;
5912;SDS011;2982;42.684;23.356;2023-12-20T00:22:05;107.07;;;45.77;;
5912;SDS011;2982;42.684;23.356;2023-12-20T00:24:30;91.87;;;42.20;;
5912;SDS011;2982;42.684;23.356;2023-12-20T00:26:55;101.00;;;45.77;;
5912;SDS011;2982;42.684;23.356;2023-12-20T00:29:20;97.67;;;45.27;;
5912;SDS011;2982;42.684;23.356;2023-12-20T00:31:45;82.70;;;42.90;;
5912;SDS011;2982;42.684;23.356;2023-12-20T00:34:11;95.03;;;44.73;;
5912;SDS011;2982;42.684;23.356;2023-12-20T00:36:36;78.97;;;40.53;;
5912;SDS011;2982;42.684;23.356;2023-12-20T00:39:01;89.00;;;43.90;;
5912;SDS011;2982;42.684;23.356;2023-12-20T00:41:26;89.60;;;43.30;;
5912;SDS011;2982;42.684;23.356;2023-12-20T00:43:52;88.67;;;40.93;;
5912;SDS011;2982;42.684;23.356;2023-12-20T00:46:17;82.43;;;43.07;;
5912;SDS011;2982;42.684;23.356;2023-12-20T00:48:42;87.50;;;42.37;;
5912;SDS011;2982;42.684;23.356;2023-12-20T00:51:07;98.20;;;43.03;;
5912;SDS011;2982;42.684;23.356;2023-12-20T00:53:32;75.20;;;39.77;;
5912;SDS011;2982;42.684;23.356;2023-12-20T00:55:58;85.37;;;42.37;;
5912;SDS011;2982;42.684;23.356;2023-12-20T00:58:23;87.63;;;42.40;;
5912;SDS011;2982;42.684;23.356;2023-12-20T01:00:48;76.37;;;40.70;;
5912;SDS011;2982;42.684;23.356;2023-12-20T01:03:13;84.43;;;41.03;;
5912;SDS011;2982;42.684;23.356;2023-12-20T01:05:38;91.50;;;42.27;;
5912;SDS011;2982;42.684;23.356;2023-12-20T01:08:03;80.93;;;38.37;;
5912;SDS011;2982;42.684;23.356;2023-12-20T01:10:29;80.37;;;37.50;;
5912;SDS011;2982;42.684;23.356;2023-12-20T01:12:54;74.27;;;37.07;;
5912;SDS011;2982;42.684;23.356;2023-12-20T01:15:19;74.27;;;38.83;;
5912;SDS011;2982;42.684;23.356;2023-12-20T01:17:45;76.87;;;37.57;;
5912;SDS011;2982;42.684;23.356;2023-12-20T01:20:10;71.33;;;36.43;;
5912;SDS011;2982;42.684;23.356;2023-12-20T01:22:35;71.17;;;36.27;;
5912;SDS011;2982;42.684;23.356;2023-12-20T01:25:00;67.53;;;35.90;;
5912;SDS011;2982;42.684;23.356;2023-12-20T01:27:25;70.30;;;37.20;;
5912;SDS011;2982;42.684;23.356;2023-12-20T01:29:51;75.53;;;34.83;;
5912;SDS011;2982;42.684;23.356;2023-12-20T01:32:16;92.83;;;42.70;;
5912;SDS011;2982;42.684;23.356;2023-12-20T01:34:41;109.20;;;51.77;;
5912;SDS011;2982;42.684;23.356;2023-12-20T01:37:06;77.10;;;41.00;;
5912;SDS011;2982;42.684;23.356;2023-12-20T01:39:31;79.77;;;40.10;;
5912;SDS011;2982;42.684;23.356;2023-12-20T01:41:56;84.00;;;41.93;;
5912;SDS011;2982;42.684;23.356;2023-12-20T01:44:22;84.83;;;38.37;;
5912;SDS011;2982;42.684;23.356;2023-12-20T01:46:47;71.00;;;37.60;;
5912;SDS011;2982;42.684;23.356;2023-12-20T01:49:12;85.03;;;38.33;;
5912;SDS011;2982;42.684;23.356;2023-12-20T01:51:37;62.70;;;35.87;;
5912;SDS011;2982;42.684;23.356;2023-12-20T01:54:03;73.93;;;37.30;;
5912;SDS011;2982;42.684;23.356;2023-12-20T01:56:28;75.83;;;36.47;;
5912;SDS011;2982;42.684;23.356;2023-12-20T01:58:54;133.77;;;59.20;;
5912;SDS011;2982;42.684;23.356;2023-12-20T02:01:19;138.83;;;57.03;;
5912;SDS011;2982;42.684;23.356;2023-12-20T02:03:45;124.50;;;52.73;;
5912;SDS011;2982;42.684;23.356;2023-12-20T02:06:10;103.67;;;48.60;;
5912;SDS011;2982;42.684;23.356;2023-12-20T02:08:35;109.23;;;52.10;;
5912;SDS011;2982;42.684;23.356;2023-12-20T02:11:01;153.63;;;68.67;;
5912;SDS011;2982;42.684;23.356;2023-12-20T02:13:26;128.83;;;57.87;;
5912;SDS011;2982;42.684;23.356;2023-12-20T02:15:51;148.60;;;61.30;;
5912;SDS011;2982;42.684;23.356;2023-12-20T02:18:16;155.63;;;66.20;;
5912;SDS011;2982;42.684;23.356;2023-12-20T02:20:41;176.03;;;77.43;;
5912;SDS011;2982;42.684;23.356;2023-12-20T02:23:07;203.83;;;89.93;;
5912;SDS011;2982;42.684;23.356;2023-12-20T02:25:32;214.50;;;94.60;;
5912;SDS011;2982;42.684;23.356;2023-12-20T02:27:57;215.50;;;96.03;;
5912;SDS011;2982;42.684;23.356;2023-12-20T02:30:22;210.73;;;98.40;;
5912;SDS011;2982;42.684;23.356;2023-12-20T02:32:48;229.43;;;95.63;;
5912;SDS011;2982;42.684;23.356;2023-12-20T02:35:14;191.00;;;89.93;;
5912;SDS011;2982;42.684;23.356;2023-12-20T02:37:39;180.33;;;88.67;;
5912;SDS011;2982;42.684;23.356;2023-12-20T02:40:05;187.87;;;81.70;;
5912;SDS011;2982;42.684;23.356;2023-12-20T02:42:30;177.30;;;82.23;;
5912;SDS011;2982;42.684;23.356;2023-12-20T02:44:55;181.53;;;82.77;;
5912;SDS011;2982;42.684;23.356;2023-12-20T02:47:20;185.73;;;85.00;;
5912;SDS011;2982;42.684;23.356;2023-12-20T02:49:46;196.33;;;89.33;;
5912;SDS011;2982;42.684;23.356;2023-12-20T02:52:11;198.10;;;87.27;;
5912;SDS011;2982;42.684;23.356;2023-12-20T02:54:36;184.23;;;85.77;;
5912;SDS011;2982;42.684;23.356;2023-12-20T02:57:01;180.40;;;83.80;;
5912;SDS011;2982;42.684;23.356;2023-12-20T02:59:26;178.43;;;83.17;;
5912;SDS011;2982;42.684;23.356;2023-12-20T03:01:52;207.97;;;87.93;;
5912;SDS011;2982;42.684;23.356;2023-12-20T03:04:17;179.57;;;87.47;;
5912;SDS011;2982;42.684;23.356;2023-12-20T03:06:42;159.10;;;75.83;;
5912;SDS011;2982;42.684;23.356;2023-12-20T03:09:08;164.00;;;75.20;;
5912;SDS011;2982;42.684;23.356;2023-12-20T03:11:34;178.67;;;77.83;;
5912;SDS011;2982;42.684;23.356;2023-12-20T03:13:59;171.47;;;77.27;;
5912;SDS011;2982;42.684;23.356;2023-12-20T03:16:24;186.03;;;80.50;;
5912;SDS011;2982;42.684;23.356;2023-12-20T03:18:49;177.97;;;79.00;;
5912;SDS011;2982;42.684;23.356;2023-12-20T03:21:14;162.47;;;77.43;;
5912;SDS011;2982;42.684;23.356;2023-12-20T03:23:40;172.37;;;76.50;;
5912;SDS011;2982;42.684;23.356;2023-12-20T03:26:08;162.37;;;76.87;;
5912;SDS011;2982;42.684;23.356;2023-12-20T03:28:33;157.33;;;72.77;;
5912;SDS011;2982;42.684;23.356;2023-12-20T03:30:58;156.83;;;71.50;;
5912;SDS011;2982;42.684;23.356;2023-12-20T03:33:23;145.97;;;70.47;;
5912;SDS011;2982;42.684;23.356;2023-12-20T03:35:49;131.60;;;61.50;;
5912;SDS011;2982;42.684;23.356;2023-12-20T03:38:14;132.23;;;61.23;;
5912;SDS011;2982;42.684;23.356;2023-12-20T03:40:39;118.43;;;55.27;;
5912;SDS011;2982;42.684;23.356;2023-12-20T03:43:04;80.73;;;36.57;;
5912;SDS011;2982;42.684;23.356;2023-12-20T03:45:29;81.60;;;38.60;;
5912;SDS011;2982;42.684;23.356;2023-12-20T03:47:54;75.90;;;33.43;;
5912;SDS011;2982;42.684;23.356;2023-12-20T03:50:20;71.07;;;35.43;;
5912;SDS011;2982;42.684;23.356;2023-12-20T03:52:45;61.43;;;32.33;;
5912;SDS011;2982;42.684;23.356;2023-12-20T03:55:10;62.10;;;30.57;;
5912;SDS011;2982;42.684;23.356;2023-12-20T03:57:35;69.60;;;33.27;;
5912;SDS011;2982;42.684;23.356;2023-12-20T04:00:00;66.10;;;30.90;;
5912;SDS011;2982;42.684;23.356;2023-12-20T04:02:26;65.33;;;30.47;;
5912;SDS011;2982;42.684;23.356;2023-12-20T04:04:51;70.17;;;29.87;;
5912;SDS011;2982;42.684;23.356;2023-12-20T04:07:16;64.57;;;29.70;;
5912;SDS011;2982;42.684;23.356;2023-12-20T04:09:41;66.40;;;28.67;;
5912;SDS011;2982;42.684;23.356;2023-12-20T04:12:06;52.53;;;25.87;;
5912;SDS011;2982;42.684;23.356;2023-12-20T04:14:32;52.13;;;27.03;;
5912;SDS011;2982;42.684;23.356;2023-12-20T04:16:57;63.43;;;28.67;;
5912;SDS011;2982;42.684;23.356;2023-12-20T04:19:22;54.93;;;29.00;;
5912;SDS011;2982;42.684;23.356;2023-12-20T04:21:47;49.47;;;28.77;;
5912;SDS011;2982;42.684;23.356;2023-12-20T04:24:12;55.83;;;29.90;;
5912;SDS011;2982;42.684;23.356;2023-12-20T04:26:37;52.67;;;27.43;;
5912;SDS011;2982;42.684;23.356;2023-12-20T04:29:03;54.97;;;28.53;;
5912;SDS011;2982;42.684;23.356;2023-12-20T04:31:28;55.53;;;28.00;;
5912;SDS011;2982;42.684;23.356;2023-12-20T04:33:54;63.40;;;31.50;;
5912;SDS011;2982;42.684;23.356;2023-12-20T04:36:19;73.20;;;33.40;;
5912;SDS011;2982;42.684;23.356;2023-12-20T04:38:49;76.07;;;35.33;;
5912;SDS011;2982;42.684;23.356;2023-12-20T04:41:14;73.83;;;35.73;;
5912;SDS011;2982;42.684;23.356;2023-12-20T04:43:41;71.97;;;38.33;;
5912;SDS011;2982;42.684;23.356;2023-12-20T04:46:06;94.30;;;39.03;;
5912;SDS011;2982;42.684;23.356;2023-12-20T04:48:31;95.37;;;41.87;;
5912;SDS011;2982;42.684;23.356;2023-12-20T04:50:57;118.37;;;48.33;;
5912;SDS011;2982;42.684;23.356;2023-12-20T04:53:23;115.03;;;44.70;;
5912;SDS011;2982;42.684;23.356;2023-12-20T04:56:05;114.17;;;48.73;;
5912;SDS011;2982;42.684;23.356;2023-12-20T04:58:50;125.60;;;49.40;;
5912;SDS011;2982;42.684;23.356;2023-12-20T05:01:32;119.60;;;49.83;;
5912;SDS011;2982;42.684;23.356;2023-12-20T05:03:58;132.20;;;51.00;;
5912;SDS011;2982;42.684;23.356;2023-12-20T05:06:43;114.53;;;49.33;;
5912;SDS011;2982;42.684;23.356;2023-12-20T05:09:34;145.03;;;51.43;;
5912;SDS011;2982;42.684;23.356;2023-12-20T05:12:21;122.37;;;45.27;;
5912;SDS011;2982;42.684;23.356;2023-12-20T05:14:51;88.87;;;41.37;;
5912;SDS011;2982;42.684;23.356;2023-12-20T05:17:42;96.13;;;38.80;;
5912;SDS011;2982;42.684;23.356;2023-12-20T05:20:11;89.43;;;36.83;;
5912;SDS011;2982;42.684;23.356;2023-12-20T05:22:37;101.60;;;40.53;;
5912;SDS011;2982;42.684;23.356;2023-12-20T05:25:03;82.17;;;36.90;;
5912;SDS011;2982;42.684;23.356;2023-12-20T05:27:33;96.70;;;41.43;;
5912;SDS011;2982;42.684;23.356;2023-12-20T05:30:19;99.03;;;41.47;;
5912;SDS011;2982;42.684;23.356;2023-12-20T05:33:07;102.10;;;41.83;;
5912;SDS011;2982;42.684;23.356;2023-12-20T05:49:04;85.93;;;37.67;;
5912;SDS011;2982;42.684;23.356;2023-12-20T05:51:49;85.83;;;38.10;;
5912;SDS011;2982;42.684;23.356;2023-12-20T06:33:35;47.83;;;21.37;;
5912;SDS011;2982;42.684;23.356;2023-12-20T16:53:16;291.77;;;76.83;;
5912;SDS011;2982;42.684;23.356;2023-12-20T16:55:46;367.97;;;78.20;;
5912;SDS011;2982;42.684;23.356;2023-12-20T16:58:31;302.43;;;71.60;;
5912;SDS011;2982;42.684;23.356;2023-12-20T17:01:31;343.20;;;78.60;;
5912;SDS011;2982;42.684;23.356;2023-12-20T17:53:24;290.40;;;76.93;;
5912;SDS011;2982;42.684;23.356;2023-12-20T23:04:05;171.73;;;61.03;;
5912;SDS011;2982;42.684;23.356;2023-12-20T23:06:30;189.10;;;57.60;;
5912;SDS011;2982;42.684;23.356;2023-12-20T23:08:55;211.70;;;63.80;;
5912;SDS011;2982;42.684;23.356;2023-12-20T23:11:21;149.57;;;54.10;;
5912;SDS011;2982;42.684;23.356;2023-12-20T23:13:48;237.43;;;63.37;;
5912;SDS011;2982;42.684;23.356;2023-12-20T23:16:13;209.17;;;64.83;;
5912;SDS011;2982;42.684;23.356;2023-12-20T23:18:39;171.33;;;57.57;;
5912;SDS011;2982;42.684;23.356;2023-12-20T23:21:04;175.20;;;59.00;;
5912;SDS011;2982;42.684;23.356;2023-12-20T23:23:29;165.03;;;56.23;;
5912;SDS011;2982;42.684;23.356;2023-12-20T23:25:54;178.07;;;56.50;;
5912;SDS011;2982;42.684;23.356;2023-12-20T23:28:19;185.47;;;58.80;;
5912;SDS011;2982;42.684;23.356;2023-12-20T23:30:46;150.80;;;55.87;;
5912;SDS011;2982;42.684;23.356;2023-12-20T23:33:11;177.40;;;60.53;;
5912;SDS011;2982;42.684;23.356;2023-12-20T23:35:36;169.67;;;58.50;;
5912;SDS011;2982;42.684;23.356;2023-12-20T23:38:01;199.23;;;60.60;;
5912;SDS011;2982;42.684;23.356;2023-12-20T23:40:27;223.47;;;62.60;;
5912;SDS011;2982;42.684;23.356;2023-12-20T23:42:52;208.00;;;60.67;;
5912;SDS011;2982;42.684;23.356;2023-12-20T23:45:17;191.87;;;61.07;;
5912;SDS011;2982;42.684;23.356;2023-12-20T23:47:42;185.23;;;62.97;;
5912;SDS011;2982;42.684;23.356;2023-12-20T23:50:07;172.63;;;60.33;;
5912;SDS011;2982;42.684;23.356;2023-12-20T23:52:33;177.37;;;58.93;;
5912;SDS011;2982;42.684;23.356;2023-12-20T23:54:58;157.43;;;56.40;;
5912;SDS011;2982;42.684;23.356;2023-12-20T23:57:23;166.50;;;58.13;;
5912;SDS011;2982;42.684;23.356;2023-12-20T23:59:49;174.17;;;60.40;;
